Time;durP1;ratioP1;P1;durP2;ratioP2;P2;SDS_P1;SDS_P2;PMS_P1;PMS_P2;Temp;Humidity;BMP_temperature;BMP_pressure;BME280_temperature;BME280_humidity;BME280_pressure;Samples;Min_cycle;Max_cycle;Signal;HPM_P1;HPM_P2
2021/12/14 00:01:13;;;;;;;11.15;5.53;;;8.90;99.90;;;;;;4988165;28;20046;-70
2021/12/14 00:03:43;;;;;;;12.95;6.07;;;8.90;99.90;;;;;;4987635;28;20027;-70
2021/12/14 00:06:10;;;;;;;16.70;5.85;;;8.90;99.90;;;;;;4987764;28;20027;-70
2021/12/14 00:08:48;;;;;;;14.95;7.03;;;9.00;99.90;;;;;;4987950;28;20046;-71
2021/12/14 00:11:36;;;;;;;10.45;5.78;;;9.00;99.90;;;;;;4987552;28;20113;-71
2021/12/14 00:16:54;;;;;;;16.30;6.35;;;9.00;99.90;;;;;;4987175;28;20089;-70
2021/12/14 00:19:20;;;;;;;17.30;5.35;;;8.90;99.90;;;;;;4986965;28;20055;-71
2021/12/14 00:21:51;;;;;;;12.32;5.80;;;9.00;99.90;;;;;;4987293;28;20118;-71
2021/12/14 00:24:18;;;;;;;11.73;5.72;;;9.00;99.90;;;;;;4987213;28;20091;-70
2021/12/14 00:26:43;;;;;;;12.55;6.05;;;9.00;99.90;;;;;;4987480;28;20447;-71
2021/12/14 00:29:15;;;;;;;13.07;5.10;;;9.00;99.90;;;;;;4987374;28;20030;-72
2021/12/14 00:31:41;;;;;;;14.00;6.38;;;9.00;99.90;;;;;;4987000;28;20022;-72
2021/12/14 00:34:07;;;;;;;9.70;5.70;;;9.00;99.90;;;;;;4985956;28;20039;-72
2021/12/14 00:36:37;;;;;;;15.40;6.30;;;9.00;99.90;;;;;;4985851;28;20043;-72
2021/12/14 00:39:08;;;;;;;11.27;6.20;;;9.00;99.90;;;;;;4986972;28;20018;-74
2021/12/14 00:41:37;;;;;;;21.73;6.75;;;9.00;99.90;;;;;;4987424;28;20031;-71
2021/12/14 00:44:03;;;;;;;11.75;5.35;;;9.00;99.90;;;;;;4987196;28;20027;-72
2021/12/14 00:46:29;;;;;;;13.13;5.50;;;9.00;99.90;;;;;;4987458;28;20038;-72
2021/12/14 00:48:55;;;;;;;13.07;5.88;;;9.00;99.90;;;;;;4986973;28;20033;-71
2021/12/14 00:51:26;;;;;;;12.25;5.57;;;9.00;99.90;;;;;;4986801;28;20031;-70
2021/12/14 00:53:52;;;;;;;11.00;5.93;;;9.00;99.90;;;;;;4986765;28;20058;-71
2021/12/14 00:56:18;;;;;;;17.85;6.80;;;9.00;99.90;;;;;;4986904;28;20031;-70
2021/12/14 00:58:44;;;;;;;9.52;5.65;;;9.00;99.90;;;;;;4985720;28;20053;-70
2021/12/14 01:01:39;;;;;;;10.63;5.60;;;9.00;99.90;;;;;;4985624;28;20039;-70
2021/12/14 01:04:07;;;;;;;;;;;9.00;99.90;;;;;;4986504;28;20051;-70
2021/12/14 01:06:36;;;;;;;11.60;5.72;;;9.00;99.90;;;;;;4986699;28;20366;-71
2021/12/14 01:09:05;;;;;;;16.13;5.55;;;9.00;99.90;;;;;;4986988;28;20027;-72
2021/12/14 01:11:37;;;;;;;15.68;6.03;;;8.90;99.90;;;;;;4986958;28;20037;-70
2021/12/14 01:14:25;;;;;;;12.43;6.63;;;8.90;99.90;;;;;;4986283;28;20038;-70
2021/12/14 01:17:12;;;;;;;12.18;6.15;;;8.90;99.90;;;;;;4986727;28;20133;-73
2021/12/14 01:19:42;;;;;;;11.68;5.35;;;8.90;99.90;;;;;;4986060;28;20054;-69
2021/12/14 01:27:09;;;;;;;12.73;6.10;;;8.90;99.90;;;;;;4986131;28;20069;-69
2021/12/14 01:29:36;;;;;;;16.80;4.75;;;8.90;99.90;;;;;;4985327;28;20031;-72
2021/12/14 01:32:03;;;;;;;12.52;5.88;;;8.90;99.90;;;;;;4986114;28;20054;-71
2021/12/14 01:34:31;;;;;;;10.15;4.90;;;8.90;99.90;;;;;;4985914;28;20034;-69
2021/12/14 01:37:04;;;;;;;12.52;5.95;;;8.90;99.90;;;;;;4985934;28;20026;-70
2021/12/14 01:42:08;;;;;;;11.23;5.88;;;8.90;99.90;;;;;;4985944;28;20555;-70
2021/12/14 01:44:52;;;;;;;11.07;6.00;;;8.90;99.90;;;;;;4986130;28;20058;-69
2021/12/14 01:47:44;;;;;;;13.57;6.10;;;8.80;99.90;;;;;;4986034;28;20038;-70
2021/12/14 01:50:33;;;;;;;11.05;6.07;;;8.80;99.90;;;;;;4983479;28;20099;-69
2021/12/14 01:53:00;;;;;;;12.95;4.93;;;8.80;99.90;;;;;;4984336;28;20031;-71
2021/12/14 01:55:33;;;;;;;9.23;4.85;;;8.80;99.90;;;;;;4984947;28;20038;-72
2021/12/14 01:58:03;;;;;;;9.73;4.97;;;8.80;99.90;;;;;;4985297;28;20039;-70
2021/12/14 02:00:38;;;;;;;10.77;5.78;;;8.80;99.90;;;;;;4985897;28;20039;-72
2021/12/14 02:03:09;;;;;;;13.85;5.72;;;8.80;99.90;;;;;;4986080;28;20375;-72
2021/12/14 02:05:40;;;;;;;12.65;5.32;;;8.80;99.90;;;;;;4985927;28;20042;-72
2021/12/14 02:08:26;;;;;;;11.30;4.93;;;8.80;99.90;;;;;;4984248;28;20038;-72
2021/12/14 02:10:54;;;;;;;11.40;4.70;;;8.80;99.90;;;;;;4985920;28;20035;-72
2021/12/14 02:13:33;;;;;;;10.65;5.47;;;8.80;99.90;;;;;;4985648;28;20034;-72
2021/12/14 02:16:01;;;;;;;8.95;4.10;;;8.80;99.90;;;;;;4985958;28;20030;-73
2021/12/14 02:18:29;;;;;;;12.27;5.18;;;8.70;99.90;;;;;;4986003;28;20027;-70
2021/12/14 02:21:14;;;;;;;11.88;5.32;;;8.70;99.90;;;;;;4984883;28;20047;-71
2021/12/14 02:23:43;;;;;;;12.63;5.53;;;8.70;99.90;;;;;;4984836;28;20031;-71
2021/12/14 02:26:13;;;;;;;10.75;5.30;;;8.70;99.90;;;;;;4985741;28;20026;-70
2021/12/14 02:28:39;;;;;;;9.48;5.07;;;8.70;99.90;;;;;;4985490;28;20027;-69
2021/12/14 02:31:09;;;;;;;9.38;4.07;;;8.70;99.90;;;;;;4985675;28;20114;-69
2021/12/14 02:33:37;;;;;;;18.15;4.88;;;8.70;99.90;;;;;;4985359;28;20023;-69
2021/12/14 02:36:07;;;;;;;13.93;6.35;;;8.70;99.90;;;;;;4985690;28;20077;-70
2021/12/14 02:38:34;;;;;;;9.25;4.32;;;8.70;99.90;;;;;;4984976;28;20109;-70
2021/12/14 02:41:05;;;;;;;10.45;5.32;;;8.70;99.90;;;;;;4987593;28;20042;-70
2021/12/14 02:43:39;;;;;;;10.93;4.35;;;8.70;99.90;;;;;;4970246;29;20023;-72
2021/12/14 02:46:17;;;;;;;10.30;4.28;;;8.70;99.90;;;;;;4971859;28;20070;-69
2021/12/14 02:48:47;;;;;;;7.95;4.15;;;8.70;99.90;;;;;;4988440;28;20035;-70
2021/12/14 02:51:20;;;;;;;10.75;3.95;;;8.70;99.90;;;;;;4988945;28;20035;-69
2021/12/14 02:53:49;;;;;;;11.50;4.60;;;8.70;99.90;;;;;;4989071;28;20041;-70
2021/12/14 02:56:18;;;;;;;8.77;4.50;;;8.70;99.90;;;;;;4989159;28;20076;-71
2021/12/14 02:58:45;;;;;;;10.23;4.15;;;8.70;99.90;;;;;;4969831;29;20019;-71
2021/12/14 03:01:13;;;;;;;9.73;4.38;;;8.70;99.90;;;;;;4969631;29;20095;-72
2021/12/14 03:03:39;;;;;;;8.98;4.13;;;8.70;99.90;;;;;;4969770;29;20019;-70
2021/12/14 03:06:09;;;;;;;11.60;4.60;;;8.70;99.90;;;;;;4969454;29;20515;-73
2021/12/14 03:08:43;;;;;;;9.10;3.67;;;8.70;99.90;;;;;;4968321;29;20070;-70
2021/12/14 03:11:10;;;;;;;7.30;3.85;;;8.70;99.90;;;;;;4969459;29;20054;-68
2021/12/14 03:13:43;;;;;;;9.40;4.53;;;8.70;99.90;;;;;;4969460;29;20027;-71
2021/12/14 03:16:17;;;;;;;11.88;4.30;;;8.70;99.90;;;;;;4969460;29;20035;-72
2021/12/14 03:18:48;;;;;;;9.18;3.80;;;8.70;99.90;;;;;;4969358;28;20028;-70
2021/12/14 03:21:31;;;;;;;9.43;4.28;;;8.70;99.90;;;;;;4969088;29;20066;-71
2021/12/14 03:24:11;;;;;;;10.68;4.75;;;8.70;99.90;;;;;;4969442;29;20031;-71
2021/12/14 03:26:42;;;;;;;11.32;4.20;;;8.70;99.90;;;;;;4968988;29;20110;-72
2021/12/14 03:29:17;;;;;;;15.23;4.82;;;8.70;99.90;;;;;;4967722;29;20073;-71
2021/12/14 03:31:46;;;;;;;15.15;4.57;;;8.70;99.90;;;;;;4969158;29;20499;-72
2021/12/14 03:34:21;;;;;;;6.68;3.72;;;8.70;99.90;;;;;;4969506;29;20047;-72
2021/12/14 03:37:09;;;;;;;12.27;4.03;;;8.70;99.90;;;;;;4969314;29;20030;-70
2021/12/14 03:39:43;;;;;;;10.95;4.68;;;8.70;99.90;;;;;;4969071;29;20424;-70
2021/12/14 03:42:21;;;;;;;9.65;4.28;;;8.60;99.90;;;;;;4969010;29;20454;-72
2021/12/14 03:44:53;;;;;;;9.27;4.57;;;8.60;99.90;;;;;;4969003;29;20034;-70
2021/12/14 03:47:36;;;;;;;9.63;4.43;;;8.60;99.90;;;;;;4968908;29;20441;-71
2021/12/14 03:50:16;;;;;;;8.68;3.50;;;8.60;99.90;;;;;;4969171;29;20023;-72
2021/12/14 03:52:43;;;;;;;7.00;3.78;;;8.60;99.90;;;;;;4967847;28;20027;-70
2021/12/14 03:55:17;;;;;;;9.02;4.45;;;8.60;99.90;;;;;;4968728;29;20028;-71
2021/12/14 03:57:43;;;;;;;8.80;4.57;;;8.60;99.90;;;;;;4968612;29;20051;-72
2021/12/14 04:00:14;;;;;;;18.00;4.30;;;8.60;99.90;;;;;;4968591;29;20103;-72
2021/12/14 04:02:40;;;;;;;11.75;4.20;;;8.60;99.90;;;;;;4973035;28;20038;-72
2021/12/14 04:05:11;;;;;;;8.32;3.45;;;8.60;99.90;;;;;;4986992;28;20031;-73
2021/12/14 04:07:42;;;;;;;8.95;4.18;;;8.60;99.90;;;;;;4987237;28;20027;-73
2021/12/14 04:10:15;;;;;;;11.05;4.60;;;8.60;99.90;;;;;;4987856;28;20070;-71
2021/12/14 04:12:41;;;;;;;12.15;4.57;;;8.50;99.90;;;;;;4987687;28;20061;-71
2021/12/14 04:15:08;;;;;;;8.48;4.40;;;8.50;99.90;;;;;;4987488;28;20476;-72
2021/12/14 04:17:34;;;;;;;13.40;5.07;;;8.50;99.90;;;;;;4987582;28;20058;-70
2021/12/14 04:20:33;;;;;;;10.13;4.70;;;8.50;99.90;;;;;;4987199;28;20066;-70
2021/12/14 04:23:00;;;;;;;8.90;4.88;;;8.50;99.90;;;;;;4978762;28;20043;-70
2021/12/14 04:25:31;;;;;;;9.00;4.32;;;8.50;99.90;;;;;;4987783;28;20042;-70
2021/12/14 04:27:59;;;;;;;9.13;4.68;;;8.50;99.90;;;;;;4987868;28;20031;-70
2021/12/14 04:30:26;;;;;;;10.02;4.45;;;8.50;99.90;;;;;;4987333;28;20031;-71
2021/12/14 04:32:56;;;;;;;11.73;4.35;;;8.50;99.90;;;;;;4985953;28;20026;-71
2021/12/14 04:35:22;;;;;;;11.57;5.18;;;8.50;99.90;;;;;;4987441;28;20022;-70
2021/12/14 04:37:55;;;;;;;13.07;4.45;;;8.50;99.90;;;;;;4986655;28;20027;-71
2021/12/14 04:51:53;;;;;;;14.43;4.97;;;8.50;99.90;;;;;;4985912;28;20054;-69
2021/12/14 04:54:52;;;;;;;10.65;5.03;;;8.50;99.90;;;;;;4978074;28;20062;-68
2021/12/14 04:57:42;;;;;;;9.90;4.90;;;8.60;99.90;;;;;;4986961;28;20027;-69
2021/12/14 05:00:39;;;;;;;20.70;4.90;;;8.60;99.90;;;;;;4985629;28;20042;-69
2021/12/14 05:03:17;;;;;;;11.52;4.85;;;8.60;99.90;;;;;;4975209;28;20078;-72
2021/12/14 05:05:49;;;;;;;12.63;6.00;;;8.60;99.90;;;;;;4986675;28;20037;-69
2021/12/14 05:11:03;;;;;;;13.43;6.28;;;8.60;99.90;;;;;;4986400;28;20026;-73
2021/12/14 05:13:40;;;;;;;11.45;4.70;;;8.60;99.90;;;;;;4985799;28;20027;-72
2021/12/14 05:16:07;;;;;;;11.30;5.50;;;8.60;99.90;;;;;;4986901;28;20148;-70
2021/12/14 05:18:34;;;;;;;11.82;5.75;;;8.60;99.90;;;;;;4986694;28;20030;-72
2021/12/14 05:21:00;;;;;;;11.65;4.40;;;8.60;99.90;;;;;;4986588;28;20050;-70
2021/12/14 05:23:36;;;;;;;13.32;5.18;;;8.60;99.90;;;;;;4985987;28;20027;-70
2021/12/14 05:26:03;;;;;;;14.18;5.47;;;8.60;99.90;;;;;;4985513;28;20030;-72
2021/12/14 05:28:32;;;;;;;14.98;5.70;;;8.60;99.90;;;;;;4986526;28;20027;-72
2021/12/14 05:30:59;;;;;;;18.63;6.28;;;8.60;99.90;;;;;;4986140;28;20102;-70
2021/12/14 05:33:30;;;;;;;13.07;5.38;;;8.60;99.90;;;;;;4986061;28;20487;-71
2021/12/14 05:36:01;;;;;;;13.15;5.53;;;8.60;99.90;;;;;;4986531;28;20035;-69
2021/12/14 05:38:44;;;;;;;15.02;6.32;;;8.60;99.90;;;;;;4986579;28;20027;-71
2021/12/14 05:43:05;;;;;;;27.58;5.35;;;8.60;99.90;;;;;;4986134;28;20146;-71
2021/12/14 05:44:00;;;;;;;15.88;6.25;;;8.50;99.90;;;;;;4986086;28;20031;-74
2021/12/14 05:46:26;;;;;;;13.40;6.32;;;8.60;99.90;;;;;;4985967;28;20111;-70
2021/12/14 05:48:59;;;;;;;12.48;4.95;;;8.60;99.90;;;;;;4985067;28;20029;-70
2021/12/14 05:51:28;;;;;;;12.65;5.70;;;8.60;99.90;;;;;;4986504;28;20054;-71
2021/12/14 05:53:54;;;;;;;14.82;4.88;;;8.60;99.90;;;;;;4983784;28;20455;-69
2021/12/14 05:56:22;;;;;;;10.50;5.15;;;8.50;99.90;;;;;;4986209;28;20034;-71
2021/12/14 05:58:49;;;;;;;9.25;4.60;;;8.50;99.90;;;;;;4986079;28;20062;-69
2021/12/14 06:01:18;;;;;;;19.80;6.10;;;8.50;99.90;;;;;;4986030;28;20260;-70
2021/12/14 06:03:57;;;;;;;9.88;5.20;;;8.50;99.90;;;;;;4985414;28;20031;-71
2021/12/14 06:06:29;;;;;;;14.77;6.70;;;8.50;99.90;;;;;;4985925;28;20033;-70
2021/12/14 06:09:08;;;;;;;16.08;6.25;;;8.60;99.90;;;;;;4985636;28;20441;-70
2021/12/14 06:11:34;;;;;;;15.00;5.90;;;8.50;99.90;;;;;;4986000;28;20027;-72
2021/12/14 06:14:00;;;;;;;18.02;6.00;;;8.60;99.90;;;;;;4985871;28;20027;-72
2021/12/14 06:16:33;;;;;;;13.50;6.10;;;8.60;99.90;;;;;;4985870;28;20067;-70
2021/12/14 06:19:22;;;;;;;12.25;4.97;;;8.60;99.90;;;;;;4985977;28;20037;-72
2021/12/14 06:21:52;;;;;;;13.35;5.38;;;8.60;99.90;;;;;;4983735;28;20039;-72
2021/12/14 06:24:25;;;;;;;15.25;6.45;;;8.60;99.90;;;;;;4983955;28;20039;-75
2021/12/14 06:26:59;;;;;;;15.93;5.73;;;8.60;99.90;;;;;;4985978;28;20023;-71
2021/12/14 06:29:35;;;;;;;15.95;6.32;;;8.60;99.90;;;;;;4974239;28;20062;-72
2021/12/14 06:32:25;;;;;;;27.70;5.45;;;8.50;99.90;;;;;;4980902;28;20023;-70
2021/12/14 06:34:58;;;;;;;14.52;6.28;;;8.50;99.90;;;;;;4984251;28;20059;-70
2021/12/14 06:40:10;;;;;;;16.00;6.05;;;8.50;99.90;;;;;;4984566;28;20054;-71
2021/12/14 06:42:43;;;;;;;12.45;5.25;;;8.50;99.90;;;;;;4985689;28;20034;-72
2021/12/14 06:45:15;;;;;;;15.25;5.55;;;8.50;99.90;;;;;;4985556;28;20023;-72
2021/12/14 06:47:41;;;;;;;17.40;6.95;;;8.50;99.90;;;;;;4985130;28;20022;-70
2021/12/14 06:50:11;;;;;;;13.25;5.63;;;8.50;99.90;;;;;;4985658;28;20037;-71
2021/12/14 06:52:37;;;;;;;16.75;6.63;;;8.50;99.90;;;;;;4985665;28;20046;-71
2021/12/14 06:55:05;;;;;;;13.50;5.63;;;8.50;99.90;;;;;;4985322;28;20034;-71
2021/12/14 06:57:32;;;;;;;11.98;5.78;;;8.50;99.90;;;;;;4985206;28;20435;-73
2021/12/14 06:59:59;;;;;;;25.27;5.97;;;8.50;99.90;;;;;;4985648;28;20120;-74
2021/12/14 07:02:37;;;;;;;12.30;6.10;;;8.50;99.90;;;;;;4985577;28;20019;-73
2021/12/14 07:05:07;;;;;;;14.88;5.78;;;8.50;99.90;;;;;;4985785;28;20027;-74
2021/12/14 07:07:34;;;;;;;23.05;7.43;;;8.50;99.90;;;;;;4981795;28;20505;-74
2021/12/14 07:10:03;;;;;;;16.52;6.88;;;8.50;99.90;;;;;;4973261;28;20428;-73
2021/12/14 07:12:34;;;;;;;14.02;6.40;;;8.50;99.90;;;;;;4967531;28;20139;-75
2021/12/14 07:15:12;;;;;;;13.18;6.10;;;8.60;99.90;;;;;;4985460;28;20022;-74
2021/12/14 07:17:43;;;;;;;17.08;6.28;;;8.50;99.90;;;;;;4984084;28;20563;-74
2021/12/14 07:20:11;;;;;;;19.17;7.70;;;8.50;99.90;;;;;;4985624;28;20059;-73
2021/12/14 07:22:45;;;;;;;17.85;6.65;;;8.50;99.90;;;;;;4985082;28;20031;-75
2021/12/14 07:25:41;;;;;;;20.58;7.43;;;8.50;99.90;;;;;;4985343;28;20038;-74
2021/12/14 07:28:14;;;;;;;19.77;6.00;;;8.50;99.90;;;;;;4987073;28;20031;-74
2021/12/14 07:30:45;;;;;;;;;;;8.50;99.90;;;;;;4989123;28;20057;-74
2021/12/14 07:33:16;;;;;;;16.15;7.05;;;8.50;99.90;;;;;;4987877;28;19916;-74
2021/12/14 07:35:55;;;;;;;12.30;5.95;;;8.50;99.90;;;;;;4986155;28;20023;-73
2021/12/14 07:38:39;;;;;;;15.73;7.85;;;8.50;99.90;;;;;;4979959;28;20031;-72
2021/12/14 07:41:23;;;;;;;18.77;7.90;;;8.40;99.90;;;;;;4969156;29;20546;-75
2021/12/14 07:43:55;;;;;;;18.45;7.90;;;8.40;99.90;;;;;;4983695;28;20049;-72
2021/12/14 07:46:39;;;;;;;18.48;8.18;;;8.40;99.90;;;;;;4987128;28;20054;-71
2021/12/14 07:49:10;;;;;;;25.65;7.97;;;8.40;99.90;;;;;;4988529;28;20024;-71
2021/12/14 07:51:39;;;;;;;23.42;8.07;;;8.40;99.90;;;;;;4980830;28;20035;-72
2021/12/14 07:54:10;;;;;;;20.98;9.00;;;8.40;99.90;;;;;;4973781;28;20035;-72
2021/12/14 07:56:41;;;;;;;19.75;8.43;;;8.40;99.90;;;;;;4979923;28;20490;-72
2021/12/14 07:59:35;;;;;;;21.10;10.15;;;8.40;99.90;;;;;;4988897;28;20022;-73
2021/12/14 08:02:19;;;;;;;19.53;9.07;;;8.50;99.90;;;;;;4989482;28;20098;-76
2021/12/14 08:04:58;;;;;;;20.75;8.45;;;8.50;99.90;;;;;;4988088;28;20091;-72
2021/12/14 08:07:43;;;;;;;28.05;9.70;;;8.50;99.90;;;;;;4988169;28;20050;-72
2021/12/14 08:10:15;;;;;;;16.65;7.25;;;8.40;99.90;;;;;;4988053;28;20058;-72
2021/12/14 08:12:40;;;;;;;24.08;9.23;;;8.40;99.90;;;;;;4987987;28;20038;-73
2021/12/14 08:15:18;;;;;;;20.52;7.72;;;8.40;99.90;;;;;;4987883;28;20031;-74
2021/12/14 08:17:45;;;;;;;16.75;7.63;;;8.50;99.90;;;;;;4986886;28;20050;-74
2021/12/14 08:20:20;;;;;;;18.30;7.22;;;8.40;99.90;;;;;;4987470;28;20153;-74
2021/12/14 08:22:56;;;;;;;23.48;9.20;;;8.50;99.90;;;;;;4987843;28;20058;-73
2021/12/14 08:25:26;;;;;;;22.77;9.05;;;8.50;99.90;;;;;;4986370;28;20035;-72
2021/12/14 08:28:05;;;;;;;21.73;9.57;;;8.50;99.90;;;;;;4984483;28;20431;-72
2021/12/14 08:30:34;;;;;;;22.35;9.45;;;8.50;99.90;;;;;;4987831;28;20050;-73
2021/12/14 08:33:02;;;;;;;16.88;9.13;;;8.50;99.90;;;;;;4987661;28;20033;-74
2021/12/14 08:35:28;;;;;;;18.98;8.45;;;8.50;99.90;;;;;;4987745;28;20046;-74
2021/12/14 08:37:59;;;;;;;28.58;9.95;;;8.60;99.90;;;;;;4985752;28;20053;-72
2021/12/14 08:40:28;;;;;;;23.10;9.45;;;8.50;99.90;;;;;;4987594;28;20035;-74
2021/12/14 08:43:11;;;;;;;21.13;9.73;;;8.50;99.90;;;;;;4985408;28;20030;-72
2021/12/14 08:45:48;;;;;;;25.95;9.02;;;8.50;99.90;;;;;;4983588;28;20038;-74
2021/12/14 08:48:21;;;;;;;30.08;9.13;;;8.50;99.90;;;;;;4970009;28;20100;-71
2021/12/14 08:51:13;;;;;;;24.13;10.10;;;8.50;99.90;;;;;;4986013;28;20086;-73
2021/12/14 08:53:43;;;;;;;20.13;9.63;;;8.50;99.90;;;;;;4987369;28;20050;-73
2021/12/14 08:56:12;;;;;;;21.13;8.27;;;8.60;99.90;;;;;;4984251;28;20019;-73
2021/12/14 08:58:39;;;;;;;22.83;9.95;;;8.60;99.90;;;;;;4986473;28;20030;-74
2021/12/14 09:01:12;;;;;;;22.42;9.63;;;8.60;99.90;;;;;;4984357;28;20046;-72
2021/12/14 09:03:45;;;;;;;25.27;9.10;;;8.60;99.90;;;;;;4982626;28;20023;-72
2021/12/14 09:06:15;;;;;;;27.10;10.50;;;8.60;99.90;;;;;;4983534;28;20023;-75
2021/12/14 09:08:43;;;;;;;22.20;9.77;;;8.60;99.90;;;;;;4982327;28;20035;-74
2021/12/14 09:11:11;;;;;;;24.33;9.70;;;8.60;99.90;;;;;;4976331;28;20050;-74
2021/12/14 09:13:39;;;;;;;19.42;8.88;;;8.60;99.90;;;;;;4968433;28;20027;-74
2021/12/14 09:16:16;;;;;;;24.88;9.50;;;8.60;99.90;;;;;;4985451;28;20022;-73
2021/12/14 09:18:45;;;;;;;30.05;10.65;;;8.60;99.90;;;;;;4981838;28;20037;-71
2021/12/14 09:21:18;;;;;;;26.17;9.05;;;8.60;99.90;;;;;;4976380;28;20062;-73
2021/12/14 09:23:52;;;;;;;26.08;10.23;;;8.60;99.90;;;;;;4966013;28;20056;-73
2021/12/14 09:26:22;;;;;;;20.88;9.50;;;8.60;99.90;;;;;;4977791;28;20034;-74
2021/12/14 09:28:49;;;;;;;29.45;10.75;;;8.60;99.90;;;;;;4978914;28;20144;-73
2021/12/14 09:31:19;;;;;;;23.48;9.43;;;8.60;99.90;;;;;;4984188;28;20030;-73
2021/12/14 09:33:47;;;;;;;21.98;10.00;;;8.70;99.90;;;;;;4984637;28;20420;-73
2021/12/14 09:36:13;;;;;;;23.58;11.02;;;8.70;99.90;;;;;;4986071;28;20055;-72
2021/12/14 09:38:45;;;;;;;24.50;10.43;;;8.70;99.90;;;;;;4985853;28;20269;-73
2021/12/14 09:41:19;;;;;;;26.48;10.43;;;8.70;99.90;;;;;;4985927;28;20094;-74
2021/12/14 09:43:47;;;;;;;31.60;10.93;;;8.60;99.90;;;;;;4983781;28;20109;-72
2021/12/14 09:46:14;;;;;;;32.35;12.55;;;8.70;99.90;;;;;;4984922;28;20046;-73
2021/12/14 09:48:53;;;;;;;25.52;11.60;;;8.70;99.90;;;;;;4984729;28;20037;-72
2021/12/14 09:51:27;;;;;;;45.17;10.48;;;8.70;99.90;;;;;;4984048;28;20030;-73
2021/12/14 09:53:57;;;;;;;33.70;11.45;;;8.70;99.90;;;;;;4982290;28;20090;-75
2021/12/14 09:56:30;;;;;;;33.70;10.23;;;8.70;99.90;;;;;;4980926;28;20056;-74
2021/12/14 09:58:59;;;;;;;29.92;10.70;;;8.70;99.90;;;;;;4985452;28;20043;-71
2021/12/14 10:01:33;;;;;;;26.48;9.45;;;8.70;99.90;;;;;;4981638;28;20090;-74
2021/12/14 10:04:09;;;;;;;23.25;10.73;;;8.70;99.90;;;;;;4985721;28;20018;-73
2021/12/14 10:06:39;;;;;;;31.70;10.52;;;8.70;99.90;;;;;;4983554;28;20038;-76
2021/12/14 10:09:17;;;;;;;28.27;11.80;;;8.70;99.90;;;;;;4984848;28;20034;-75
2021/12/14 10:14:24;;;;;;;24.65;9.77;;;8.70;99.90;;;;;;4984856;28;20031;-75
2021/12/14 10:16:50;;;;;;;30.25;11.07;;;8.70;99.90;;;;;;4983796;28;20030;-73
2021/12/14 10:19:21;;;;;;;29.33;11.30;;;8.80;99.90;;;;;;4982279;28;20110;-73
2021/12/14 10:21:54;;;;;;;29.45;11.20;;;8.80;99.90;;;;;;4985414;28;20047;-73
2021/12/14 10:24:20;;;;;;;28.50;13.68;;;8.80;99.90;;;;;;4985958;28;20022;-73
2021/12/14 10:26:58;;;;;;;28.92;11.38;;;8.80;99.90;;;;;;5002278;28;20069;-74
2021/12/14 10:29:26;;;;;;;34.72;11.02;;;8.80;99.90;;;;;;4985207;28;20026;-74
2021/12/14 10:32:02;;;;;;;38.90;13.85;;;8.80;99.90;;;;;;4983825;28;20124;-73
2021/12/14 10:34:33;;;;;;;24.92;11.60;;;8.80;99.90;;;;;;4984399;28;20494;-75
2021/12/14 10:37:10;;;;;;;27.08;10.75;;;8.80;99.90;;;;;;4984207;28;20062;-74
2021/12/14 10:42:39;;;;;;;30.88;10.30;;;8.80;99.90;;;;;;4983714;28;20033;-75
2021/12/14 10:42:54;;;;;;;33.20;12.07;;;8.80;99.90;;;;;;4985314;28;20035;-75
2021/12/14 10:45:22;;;;;;;26.38;10.82;;;8.80;99.90;;;;;;4985450;28;20030;-74
2021/12/14 10:47:49;;;;;;;42.42;13.13;;;8.70;99.90;;;;;;4984035;28;20031;-72
2021/12/14 10:50:19;;;;;;;32.20;13.07;;;8.70;99.90;;;;;;4985183;28;20031;-75
2021/12/14 10:52:45;;;;;;;28.45;13.00;;;8.70;99.90;;;;;;4984443;28;20022;-74
2021/12/14 10:55:24;;;;;;;39.58;13.52;;;8.80;99.90;;;;;;4983453;28;20026;-75
2021/12/14 10:57:51;;;;;;;29.65;12.50;;;8.80;99.90;;;;;;4984943;28;20091;-73
2021/12/14 11:00:34;;;;;;;27.58;11.00;;;8.80;99.90;;;;;;4984992;28;20049;-73
2021/12/14 11:03:10;;;;;;;41.03;13.70;;;8.80;99.90;;;;;;4988923;28;20031;-74
2021/12/14 11:05:38;;;;;;;28.73;10.73;;;8.90;99.90;;;;;;4987456;28;20031;-73
2021/12/14 11:08:10;;;;;;;23.35;10.63;;;8.90;99.90;;;;;;4988121;28;20033;-74
2021/12/14 11:10:38;;;;;;;26.42;11.18;;;8.90;99.90;;;;;;4989146;28;20113;-73
2021/12/14 11:13:09;;;;;;;38.70;11.50;;;9.00;99.90;;;;;;4987488;28;20026;-74
2021/12/14 11:15:50;;;;;;;36.63;13.43;;;8.90;99.90;;;;;;4986092;28;20053;-73
2021/12/14 11:18:24;;;;;;;30.23;11.45;;;9.00;99.90;;;;;;4986745;28;20323;-73
2021/12/14 11:21:09;;;;;;;27.85;12.88;;;9.00;99.90;;;;;;4986455;28;20046;-74
2021/12/14 11:23:43;;;;;;;29.50;12.25;;;9.00;99.90;;;;;;4988153;28;20027;-75
2021/12/14 11:26:12;;;;;;;31.67;10.98;;;9.00;99.90;;;;;;4987960;28;20023;-75
2021/12/14 11:28:43;;;;;;;33.13;11.57;;;9.00;99.90;;;;;;4987285;28;20067;-72
2021/12/14 11:31:29;;;;;;;30.80;13.00;;;9.00;99.90;;;;;;4976897;28;20069;-75
2021/12/14 11:33:55;;;;;;;33.30;12.70;;;9.00;99.90;;;;;;4980962;28;20054;-73
2021/12/14 11:36:42;;;;;;;35.95;11.80;;;9.00;99.90;;;;;;4987784;28;20027;-73
2021/12/14 11:39:22;;;;;;;33.58;12.95;;;9.00;99.90;;;;;;4986523;28;20118;-73
2021/12/14 11:41:56;;;;;;;36.03;11.82;;;8.90;99.90;;;;;;4985963;28;20035;-73
2021/12/14 11:44:29;;;;;;;28.60;10.82;;;8.90;99.90;;;;;;4987903;28;20094;-72
2021/12/14 11:47:40;;;;;;;40.70;12.95;;;8.90;99.90;;;;;;4987735;28;20063;-74
2021/12/14 11:50:23;;;;;;;29.65;12.35;;;8.90;99.90;;;;;;4985804;28;20049;-74
2021/12/14 11:52:57;;;;;;;34.78;13.98;;;8.90;99.90;;;;;;4984396;28;20543;-74
2021/12/14 11:55:32;;;;;;;36.55;12.50;;;8.90;99.90;;;;;;4984909;28;20030;-74
2021/12/14 11:58:28;;;;;;;36.63;13.35;;;8.90;99.90;;;;;;4985680;28;20041;-74
2021/12/14 12:01:05;;;;;;;28.67;12.23;;;8.90;99.90;;;;;;4987004;28;20043;-74
2021/12/14 12:03:40;;;;;;;30.08;10.65;;;8.90;99.90;;;;;;4986101;28;20030;-76
2021/12/14 12:06:09;;;;;;;30.70;13.07;;;9.00;99.90;;;;;;4981882;28;20054;-73
2021/12/14 12:11:32;;;;;;;38.42;12.68;;;9.00;99.90;;;;;;4978872;28;20125;-75
2021/12/14 12:14:19;;;;;;;44.90;14.27;;;9.00;99.90;;;;;;4986856;28;20057;-74
2021/12/14 12:16:48;;;;;;;29.98;11.68;;;9.00;99.90;;;;;;4985818;28;20103;-74
2021/12/14 12:19:34;;;;;;;32.40;13.05;;;9.00;99.90;;;;;;4986266;28;20031;-74
2021/12/14 12:22:12;;;;;;;24.58;10.23;;;9.00;99.90;;;;;;4995702;28;20043;-73
2021/12/14 12:24:45;;;;;;;33.75;13.30;;;9.00;99.90;;;;;;4986635;28;20061;-72
2021/12/14 12:27:36;;;;;;;25.83;12.38;;;9.00;99.90;;;;;;4986351;28;20037;-73
2021/12/14 12:33:16;;;;;;;31.55;12.10;;;9.00;99.90;;;;;;4985670;28;20030;-74
2021/12/14 12:35:49;;;;;;;30.80;12.63;;;9.00;99.90;;;;;;4985464;28;20039;-73
2021/12/14 12:38:25;;;;;;;30.50;12.10;;;9.10;99.90;;;;;;4985545;28;20046;-74
2021/12/14 12:41:07;;;;;;;28.85;10.68;;;9.00;99.90;;;;;;4984391;28;20043;-76
2021/12/14 12:43:54;;;;;;;31.48;11.52;;;9.00;99.90;;;;;;4980500;28;20023;-74
2021/12/14 12:46:42;;;;;;;34.10;10.10;;;9.00;99.90;;;;;;4982528;28;20093;-73
2021/12/14 12:49:15;;;;;;;29.10;12.23;;;9.00;99.90;;;;;;4976284;28;20472;-76
2021/12/14 12:51:45;;;;;;;39.22;12.32;;;9.00;99.90;;;;;;4989135;28;20049;-73
2021/12/14 12:54:20;;;;;;;34.95;13.38;;;9.00;99.90;;;;;;4987804;28;20053;-75
2021/12/14 12:57:07;;;;;;;41.53;12.68;;;9.10;99.90;;;;;;4983931;28;20123;-72
2021/12/14 12:59:54;;;;;;;35.05;12.63;;;9.10;99.90;;;;;;4968762;28;20054;-75
2021/12/14 13:02:32;;;;;;;34.03;13.05;;;9.10;99.90;;;;;;4984673;28;20505;-73
2021/12/14 13:05:32;;;;;;;33.63;13.30;;;9.10;99.90;;;;;;4986707;28;20039;-73
2021/12/14 13:08:02;;;;;;;39.60;13.45;;;9.10;99.90;;;;;;4983026;28;20381;-75
2021/12/14 13:10:48;;;;;;;36.40;14.10;;;9.10;99.90;;;;;;4978292;28;20034;-73
2021/12/14 13:13:25;;;;;;;38.20;14.85;;;9.00;99.90;;;;;;4980453;28;20143;-74
2021/12/14 13:15:57;;;;;;;32.90;13.02;;;9.10;99.90;;;;;;4978268;28;20057;-74
2021/12/14 13:18:29;;;;;;;38.40;13.57;;;9.20;99.90;;;;;;4982628;28;20998;-74
2021/12/14 13:21:04;;;;;;;35.83;14.07;;;9.10;99.90;;;;;;4980502;28;20062;-73
2021/12/14 13:23:44;;;;;;;40.38;13.23;;;9.10;99.90;;;;;;4985450;28;20069;-76
2021/12/14 13:26:31;;;;;;;37.38;12.75;;;9.10;99.90;;;;;;4985383;28;20027;-72
2021/12/14 13:29:12;;;;;;;41.45;13.90;;;9.10;99.90;;;;;;4986047;28;20030;-71
2021/12/14 13:31:52;;;;;;;36.53;12.88;;;9.10;99.90;;;;;;4984566;28;20027;-74
2021/12/14 13:34:53;;;;;;;36.03;10.93;;;9.10;99.90;;;;;;4985414;28;20019;-72
2021/12/14 13:37:26;;;;;;;35.08;12.50;;;9.10;99.90;;;;;;4977431;28;20039;-72
2021/12/14 13:39:53;;;;;;;38.72;14.32;;;9.20;99.90;;;;;;4980260;28;20035;-72
2021/12/14 13:42:32;;;;;;;54.22;15.25;;;9.20;99.90;;;;;;4980595;28;20023;-73
2021/12/14 13:44:59;;;;;;;33.95;12.38;;;9.20;99.90;;;;;;4984136;28;20037;-72
2021/12/14 13:47:29;;;;;;;32.47;12.10;;;9.00;99.90;;;;;;4985175;28;20533;-71
2021/12/14 13:50:02;;;;;;;38.22;13.70;;;9.10;99.90;;;;;;4979081;28;20042;-72
2021/12/14 13:52:29;;;;;;;36.08;12.75;;;9.10;99.90;;;;;;4971749;28;20685;-72
2021/12/14 13:55:14;;;;;;;31.52;13.27;;;9.10;99.90;;;;;;4966119;28;20023;-72